createdAt,value
2018-08-24T00:00:45.428Z,15.10
2018-08-24T00:03:13.802Z,15.10
2018-08-24T00:05:42.773Z,15.10
2018-08-24T00:08:13.120Z,15.10
2018-08-24T00:10:41.587Z,15.10
2018-08-24T00:13:10.236Z,15.10
2018-08-24T00:15:39.013Z,15.10
2018-08-24T00:18:07.636Z,15.10
2018-08-24T00:20:39.176Z,15.20
2018-08-24T00:23:07.843Z,15.20
2018-08-24T00:25:37.129Z,15.20
2018-08-24T00:28:06.383Z,15.20
2018-08-24T00:30:35.222Z,15.20
2018-08-24T00:33:03.747Z,15.20
2018-08-24T00:35:32.589Z,15.20
2018-08-24T00:38:03.630Z,15.20
2018-08-24T00:40:32.185Z,15.20
2018-08-24T00:43:00.853Z,15.20
2018-08-24T00:45:29.803Z,15.20
2018-08-24T00:47:58.183Z,15.20
2018-08-24T00:50:29.733Z,15.20
2018-08-24T00:52:58.502Z,15.30
2018-08-24T00:55:27.269Z,15.30
2018-08-24T00:57:57.672Z,15.30
2018-08-24T01:00:32.406Z,15.30
2018-08-24T01:03:01.625Z,15.30
2018-08-24T01:05:30.941Z,15.30
2018-08-24T01:08:05.728Z,15.30
2018-08-24T01:10:37.637Z,15.30
2018-08-24T01:13:11.812Z,15.30
2018-08-24T01:15:46.641Z,15.30
2018-08-24T01:18:28.985Z,15.30
2018-08-24T01:20:57.665Z,15.30
2018-08-24T01:23:28.674Z,15.30
2018-08-24T01:25:57.139Z,15.40
2018-08-24T01:28:27.052Z,15.40
2018-08-24T01:31:01.226Z,15.40
2018-08-24T01:33:31.240Z,15.40
2018-08-24T01:36:00.168Z,15.50
2018-08-24T01:38:28.867Z,15.50
2018-08-24T01:40:57.520Z,15.50
2018-08-24T01:43:26.892Z,15.50
2018-08-24T01:46:01.050Z,15.50
2018-08-24T01:55:30.327Z,15.50
2018-08-24T01:57:58.976Z,15.30
2018-08-24T02:00:28.640Z,15.30
2018-08-24T02:02:57.283Z,15.30
2018-08-24T02:05:26.095Z,15.30
2018-08-24T02:07:56.785Z,15.30
2018-08-24T02:10:28.614Z,15.30
2018-08-24T02:13:03.395Z,15.30
2018-08-24T02:15:32.054Z,15.30
2018-08-24T02:19:09.194Z,15.30
2018-08-24T02:21:43.655Z,15.40
2018-08-24T02:24:13.322Z,15.30
2018-08-24T02:26:43.544Z,15.30
2018-08-24T02:29:12.293Z,15.40
2018-08-24T02:31:46.404Z,15.40
2018-08-24T02:34:16.086Z,15.40
2018-08-24T02:36:45.846Z,15.40
2018-08-24T02:39:17.120Z,15.50
2018-08-24T02:41:45.708Z,15.50
2018-08-24T02:44:14.921Z,15.60
2018-08-24T02:46:44.937Z,15.60
2018-08-24T02:49:14.012Z,15.60
2018-08-24T02:51:42.850Z,15.60
2018-08-24T02:54:11.359Z,15.60
2018-08-24T02:56:40.094Z,15.60
2018-08-24T02:59:11.668Z,15.60
2018-08-24T03:01:40.369Z,15.60
2018-08-24T03:04:09.078Z,15.60
2018-08-24T03:06:37.813Z,15.60
2018-08-24T03:09:08.782Z,15.60
2018-08-24T03:11:37.849Z,15.70
2018-08-24T03:14:06.893Z,15.60
2018-08-24T03:16:37.394Z,15.70
2018-08-24T03:19:06.690Z,15.70
2018-08-24T03:21:35.433Z,15.70
2018-08-24T03:24:07.039Z,15.70
2018-08-24T03:26:35.790Z,15.70
2018-08-24T03:29:04.601Z,15.70
2018-08-24T03:31:34.256Z,15.70
2018-08-24T03:34:02.921Z,15.70
2018-08-24T03:36:31.756Z,15.70
2018-08-24T03:39:00.516Z,15.70
2018-08-24T03:41:29.124Z,15.60
2018-08-24T03:43:57.784Z,15.60
2018-08-24T03:46:26.448Z,15.60
2018-08-24T03:48:54.902Z,15.60
2018-08-24T03:51:23.550Z,15.50
2018-08-24T03:53:52.297Z,15.50
2018-08-24T03:56:20.953Z,15.50
2018-08-24T03:58:50.089Z,15.50
2018-08-24T04:01:21.708Z,15.40
2018-08-24T04:03:51.314Z,15.30
2018-08-24T04:06:21.125Z,15.30
2018-08-24T04:08:49.644Z,15.20
2018-08-24T04:11:19.777Z,15.20
2018-08-24T04:13:49.104Z,15.10
2018-08-24T04:16:17.720Z,15.10
2018-08-24T04:18:46.244Z,15.00
2018-08-24T04:21:14.789Z,15.00
2018-08-24T04:23:43.616Z,14.90
2018-08-24T04:26:12.299Z,14.90
2018-08-24T04:28:40.990Z,14.90
2018-08-24T04:31:10.315Z,14.80
2018-08-24T04:33:40.277Z,14.80
2018-08-24T04:36:10.062Z,14.80
2018-08-24T04:38:38.628Z,14.70
2018-08-24T04:41:08.410Z,14.70
2018-08-24T04:43:37.738Z,14.70
2018-08-24T04:46:06.871Z,14.70
2018-08-24T04:48:36.753Z,14.60
2018-08-24T04:51:05.460Z,14.60
2018-08-24T04:53:34.203Z,14.50
2018-08-24T04:56:02.977Z,14.50
2018-08-24T04:58:31.938Z,14.50
2018-08-24T05:01:01.258Z,14.40
2018-08-24T05:03:29.892Z,14.40
2018-08-24T05:05:59.255Z,14.40
2018-08-24T05:08:28.489Z,14.30
2018-08-24T05:10:57.071Z,14.30
2018-08-24T05:13:25.913Z,14.30
2018-08-24T05:15:54.717Z,14.20
2018-08-24T05:19:53.420Z,14.20
2018-08-24T05:22:21.760Z,14.20
2018-08-24T05:24:50.667Z,14.10
2018-08-24T05:27:19.646Z,14.10
2018-08-24T05:29:49.475Z,14.10
2018-08-24T05:32:18.637Z,14.10
2018-08-24T05:34:47.167Z,14.00
2018-08-24T05:37:15.792Z,14.00
2018-08-24T05:39:44.468Z,14.00
2018-08-24T05:42:13.275Z,14.00
2018-08-24T05:44:42.248Z,14.00
2018-08-24T05:47:10.629Z,14.10
2018-08-24T05:49:39.737Z,14.10
2018-08-24T05:52:09.152Z,14.10
2018-08-24T05:54:37.603Z,14.10
2018-08-24T05:57:11.724Z,14.20
2018-08-24T05:59:40.865Z,14.20
2018-08-24T06:02:09.484Z,14.20
2018-08-24T06:04:43.609Z,14.30
2018-08-24T06:07:12.656Z,14.40
2018-08-24T06:09:41.399Z,14.50
2018-08-24T06:12:10.041Z,14.50
2018-08-24T06:14:39.120Z,14.70
2018-08-24T06:17:13.804Z,14.80
2018-08-24T06:19:43.262Z,14.90
2018-08-24T06:22:12.749Z,15.00
2018-08-24T06:24:42.402Z,15.10
2018-08-24T06:27:11.187Z,15.20
2018-08-24T06:29:39.896Z,15.30
2018-08-24T06:32:08.668Z,15.40
2018-08-24T06:34:37.724Z,15.60
2018-08-24T06:37:06.595Z,15.70
2018-08-24T06:39:36.186Z,15.80
2018-08-24T06:42:05.178Z,15.90
2018-08-24T06:44:34.734Z,15.90
2018-08-24T06:47:03.400Z,15.90
2018-08-24T06:49:32.697Z,15.80
2018-08-24T06:52:02.613Z,15.80
2018-08-24T06:54:31.387Z,15.80
2018-08-24T06:57:00.088Z,15.90
2018-08-24T06:59:29.890Z,15.90
2018-08-24T07:01:59.237Z,16.00
2018-08-24T07:04:28.521Z,16.00
2018-08-24T07:06:57.152Z,16.00
2018-08-24T07:09:29.757Z,16.00
2018-08-24T07:11:59.058Z,16.00
2018-08-24T07:14:28.581Z,16.20
2018-08-24T07:16:59.946Z,16.30
2018-08-24T07:19:29.763Z,16.40
2018-08-24T07:21:58.637Z,16.50
2018-08-24T07:24:27.146Z,16.70
2018-08-24T07:26:56.412Z,16.80
2018-08-24T07:29:24.845Z,17.00
2018-08-24T07:31:53.414Z,17.20
2018-08-24T07:34:21.966Z,17.30
2018-08-24T07:36:50.885Z,17.40
2018-08-24T07:39:19.378Z,17.50
2018-08-24T07:41:48.117Z,17.60
2018-08-24T07:44:17.596Z,17.80
2018-08-24T07:46:46.278Z,17.90
2018-08-24T07:49:14.954Z,18.10
2018-08-24T07:51:43.567Z,18.20
2018-08-24T07:54:12.473Z,18.30
2018-08-24T07:56:41.002Z,18.30
2018-08-24T07:59:09.796Z,18.30
2018-08-24T08:01:39.021Z,18.30
2018-08-24T08:04:08.105Z,18.30
2018-08-24T08:06:36.904Z,18.30
2018-08-24T08:09:07.255Z,18.20
2018-08-24T08:11:40.008Z,18.20
2018-08-24T08:14:11.391Z,18.10
2018-08-24T08:16:42.838Z,18.00
2018-08-24T08:19:11.652Z,17.70
2018-08-24T08:21:43.195Z,17.40
2018-08-24T08:24:14.828Z,17.20
2018-08-24T08:26:43.470Z,17.10
2018-08-24T08:29:20.381Z,17.10
2018-08-24T08:31:49.765Z,17.10
2018-08-24T08:34:18.197Z,17.40
2018-08-24T08:36:48.027Z,17.50
2018-08-24T08:39:16.531Z,17.50
2018-08-24T08:41:45.793Z,17.70
2018-08-24T08:44:15.567Z,17.80
2018-08-24T08:46:44.768Z,17.80
2018-08-24T08:49:16.851Z,17.80
2018-08-24T08:51:51.471Z,17.80
2018-08-24T08:54:26.285Z,17.80
2018-08-24T08:56:55.406Z,17.60
2018-08-24T08:59:23.983Z,17.70
2018-08-24T09:01:56.317Z,17.60
2018-08-24T09:04:27.509Z,17.50
2018-08-24T09:06:57.393Z,17.40
2018-08-24T09:09:25.844Z,17.20
2018-08-24T09:11:57.598Z,17.20
2018-08-24T09:14:26.194Z,17.00
2018-08-24T09:17:13.010Z,16.90
2018-08-24T09:19:46.553Z,16.90
2018-08-24T09:22:22.195Z,16.90
2018-08-24T09:24:57.144Z,16.80
2018-08-24T09:27:34.740Z,16.80
2018-08-24T09:30:04.575Z,16.90
2018-08-24T09:32:33.912Z,16.90
2018-08-24T09:35:02.567Z,17.00
2018-08-24T09:37:37.535Z,17.00
2018-08-24T09:40:06.755Z,17.00
2018-08-24T09:42:35.689Z,17.10
2018-08-24T09:45:04.556Z,17.30
2018-08-24T09:47:38.443Z,17.40
2018-08-24T09:50:13.191Z,17.40
2018-08-24T09:52:46.388Z,17.50
2018-08-24T09:55:15.241Z,17.80
2018-08-24T09:57:43.837Z,18.10
2018-08-24T10:00:12.484Z,18.10
2018-08-24T10:02:43.520Z,18.30
2018-08-24T10:05:17.478Z,18.60
2018-08-24T10:07:51.898Z,18.60
2018-08-24T10:10:21.057Z,18.90
2018-08-24T10:12:49.661Z,19.10
2018-08-24T10:15:18.375Z,19.30
2018-08-24T10:17:47.967Z,19.20
2018-08-24T10:20:16.548Z,19.20
2018-08-24T10:22:44.976Z,19.50
2018-08-24T10:25:14.882Z,19.70
2018-08-24T10:27:43.678Z,20.00
2018-08-24T10:30:12.838Z,20.40
2018-08-24T10:32:42.086Z,20.40
2018-08-24T10:35:11.645Z,20.50
2018-08-24T10:37:40.395Z,20.70
2018-08-24T10:40:09.950Z,20.70
2018-08-24T10:42:39.178Z,20.90
2018-08-24T10:45:07.473Z,20.90
2018-08-24T10:47:36.272Z,20.70
2018-08-24T10:50:05.169Z,20.40
2018-08-24T10:52:33.784Z,20.20
2018-08-24T10:55:02.469Z,20.10
2018-08-24T10:57:31.055Z,19.90
2018-08-24T10:59:59.819Z,20.20
2018-08-24T11:02:28.603Z,20.30
2018-08-24T11:04:57.756Z,20.10
2018-08-24T11:07:26.952Z,20.10
2018-08-24T11:09:55.630Z,20.30
2018-08-24T11:12:28.334Z,20.40
2018-08-24T11:14:57.047Z,20.60
2018-08-24T11:17:26.410Z,21.00
2018-08-24T11:19:55.022Z,21.20
2018-08-24T11:22:23.717Z,21.30
2018-08-24T11:24:52.611Z,21.40
2018-08-24T11:27:21.184Z,21.30
2018-08-24T11:29:50.279Z,21.00
2018-08-24T11:32:19.310Z,20.90
2018-08-24T11:34:48.099Z,21.10
2018-08-24T11:37:16.893Z,21.00
2018-08-24T11:39:45.380Z,20.90
2018-08-24T11:42:17.552Z,20.60
2018-08-24T11:44:46.704Z,20.80
2018-08-24T11:47:19.068Z,20.60
2018-08-24T11:49:49.946Z,20.40
2018-08-24T11:52:20.137Z,20.40
2018-08-24T11:54:48.906Z,20.80
2018-08-24T11:57:17.714Z,21.10
2018-08-24T11:59:46.312Z,21.10
2018-08-24T12:02:16.143Z,21.30
2018-08-24T12:04:44.692Z,21.20
2018-08-24T12:07:13.453Z,21.10
2018-08-24T12:09:42.098Z,21.30
2018-08-24T12:12:10.909Z,21.50
2018-08-24T12:14:39.494Z,21.40
2018-08-24T12:17:09.794Z,21.20
2018-08-24T12:19:39.177Z,21.10
2018-08-24T12:22:07.678Z,21.10
2018-08-24T12:24:36.832Z,21.20
2018-08-24T12:27:05.157Z,21.40
2018-08-24T12:29:33.865Z,21.60
2018-08-24T12:32:02.709Z,21.80
2018-08-24T12:34:31.787Z,21.90
2018-08-24T12:37:00.846Z,21.90
2018-08-24T12:39:29.397Z,21.50
2018-08-24T12:41:58.511Z,21.50
2018-08-24T12:44:26.912Z,21.70
2018-08-24T12:46:55.762Z,22.10
2018-08-24T12:49:24.552Z,21.90
2018-08-24T12:51:53.379Z,21.80
2018-08-24T12:54:22.076Z,22.00
2018-08-24T12:56:50.732Z,21.90
2018-08-24T12:59:19.379Z,21.70
2018-08-24T13:01:48.130Z,21.70
2018-08-24T13:04:16.824Z,22.10
2018-08-24T13:06:45.709Z,22.10
2018-08-24T13:09:14.143Z,22.20
2018-08-24T13:11:42.833Z,21.80
2018-08-24T13:14:11.595Z,21.50
2018-08-24T13:16:40.141Z,21.20
2018-08-24T13:19:09.129Z,21.50
2018-08-24T13:21:37.697Z,21.50
2018-08-24T13:24:06.612Z,21.70
2018-08-24T13:26:35.190Z,21.70
2018-08-24T13:29:04.541Z,21.40
2018-08-24T13:31:33.003Z,21.20
2018-08-24T13:34:01.914Z,21.00
2018-08-24T13:43:28.652Z,20.60
2018-08-24T13:45:57.184Z,21.20
2018-08-24T13:48:25.943Z,21.50
2018-08-24T13:50:54.881Z,21.30
2018-08-24T13:53:23.621Z,21.20
2018-08-24T13:55:52.846Z,21.10
2018-08-24T13:58:21.089Z,21.20
2018-08-24T14:00:50.497Z,21.10
2018-08-24T14:03:19.941Z,20.90
2018-08-24T14:05:48.680Z,21.20
2018-08-24T14:08:18.578Z,21.50
2018-08-24T14:10:47.225Z,21.60
2018-08-24T14:13:16.034Z,21.80
2018-08-24T14:15:44.490Z,21.60
2018-08-24T14:18:18.517Z,21.80
2018-08-24T14:20:47.783Z,21.30
2018-08-24T14:23:18.011Z,21.30
2018-08-24T14:25:46.665Z,21.30
2018-08-24T14:28:15.436Z,21.00
2018-08-24T14:30:44.026Z,20.70
2018-08-24T14:33:12.706Z,20.80
2018-08-24T14:35:41.454Z,20.80
2018-08-24T14:38:10.150Z,21.00
2018-08-24T14:40:38.924Z,20.90
2018-08-24T14:43:07.705Z,21.00
2018-08-24T14:45:36.480Z,21.00
2018-08-24T14:48:05.242Z,20.80
2018-08-24T14:50:33.957Z,20.90
2018-08-24T14:53:02.537Z,21.30
2018-08-24T14:55:31.252Z,21.50
2018-08-24T14:58:00.412Z,21.70
2018-08-24T15:00:29.577Z,21.70
2018-08-24T15:02:59.459Z,21.80
2018-08-24T15:05:28.611Z,21.90
2018-08-24T15:07:57.200Z,21.90
2018-08-24T15:10:26.116Z,21.80
2018-08-24T15:12:55.491Z,21.80
2018-08-24T15:15:24.038Z,22.00
2018-08-24T15:17:52.786Z,21.80
2018-08-24T15:20:21.396Z,21.40
2018-08-24T15:22:50.229Z,21.00
2018-08-24T15:25:18.697Z,20.90
2018-08-24T15:27:47.961Z,20.70
2018-08-24T15:30:16.423Z,20.60
2018-08-24T15:32:45.019Z,20.40
2018-08-24T15:35:13.682Z,20.20
2018-08-24T15:37:42.360Z,20.00
2018-08-24T15:40:12.329Z,20.00
2018-08-24T15:42:40.707Z,20.20
2018-08-24T15:45:09.448Z,20.20
2018-08-24T15:47:38.221Z,20.20
2018-08-24T15:50:06.956Z,20.10
2018-08-24T15:52:35.601Z,20.00
2018-08-24T15:55:04.275Z,19.80
2018-08-24T15:57:32.853Z,19.80
2018-08-24T16:00:01.737Z,19.60
2018-08-24T16:02:30.322Z,19.50
2018-08-24T16:04:58.932Z,19.40
2018-08-24T16:07:27.625Z,19.30
2018-08-24T16:09:56.493Z,19.30
2018-08-24T16:12:25.370Z,19.40
2018-08-24T16:14:54.026Z,19.70
2018-08-24T16:17:22.889Z,20.10
2018-08-24T16:19:51.750Z,20.10
2018-08-24T16:22:20.475Z,20.00
2018-08-24T16:24:49.038Z,19.90
2018-08-24T16:27:17.754Z,19.90
2018-08-24T16:29:46.522Z,19.70
2018-08-24T16:32:16.209Z,19.60
2018-08-24T16:34:44.892Z,19.50
2018-08-24T16:37:13.650Z,19.40
2018-08-24T16:39:42.260Z,19.20
2018-08-24T16:42:10.873Z,19.20
2018-08-24T16:44:39.605Z,19.30
2018-08-24T16:47:08.109Z,19.40
2018-08-24T16:49:36.733Z,19.60
2018-08-24T16:52:05.389Z,19.60
2018-08-24T16:54:34.292Z,19.50
2018-08-24T16:57:03.183Z,19.40
2018-08-24T16:59:31.686Z,19.40
2018-08-24T17:02:00.335Z,19.30
2018-08-24T17:04:29.049Z,19.30
2018-08-24T17:06:57.740Z,19.30
2018-08-24T17:09:26.382Z,19.20
2018-08-24T17:11:56.165Z,19.00
2018-08-24T17:14:25.623Z,18.90
2018-08-24T17:16:54.210Z,18.90
2018-08-24T17:19:22.853Z,18.80
2018-08-24T17:21:51.735Z,18.70
2018-08-24T17:24:21.017Z,18.60
2018-08-24T17:26:49.701Z,18.50
2018-08-24T17:29:18.475Z,18.50
2018-08-24T17:31:47.067Z,18.40
2018-08-24T17:34:15.591Z,18.30
2018-08-24T17:36:44.314Z,18.20
2018-08-24T17:39:13.314Z,18.10
2018-08-24T17:41:42.710Z,18.10
2018-08-24T17:44:11.169Z,18.00
2018-08-24T17:46:40.838Z,18.00
2018-08-24T17:49:09.392Z,17.90
2018-08-24T17:51:39.209Z,17.80
2018-08-24T17:54:08.084Z,17.60
2018-08-24T17:56:38.588Z,17.40
2018-08-24T17:59:09.356Z,17.30
2018-08-24T18:01:39.611Z,17.20
2018-08-24T18:04:08.267Z,17.10
2018-08-24T18:06:36.865Z,17.10
2018-08-24T18:09:08.149Z,17.00
2018-08-24T18:11:36.674Z,16.80
2018-08-24T18:14:06.705Z,16.80
2018-08-24T18:16:35.892Z,16.70
2018-08-24T18:19:05.103Z,16.70
2018-08-24T18:21:34.976Z,16.60
2018-08-24T18:24:04.111Z,16.60
2018-08-24T18:26:32.790Z,16.40
2018-08-24T18:29:02.099Z,16.30
2018-08-24T18:31:31.247Z,16.10
2018-08-24T18:34:00.406Z,16.00
2018-08-24T18:36:36.354Z,15.90
2018-08-24T18:39:10.563Z,15.90
2018-08-24T18:41:45.372Z,15.80
2018-08-24T18:44:14.974Z,15.70
2018-08-24T18:47:02.241Z,15.40
2018-08-24T18:49:48.853Z,15.10
2018-08-24T18:52:37.187Z,14.80
2018-08-24T18:55:20.816Z,14.60
2018-08-24T18:58:02.901Z,14.40
2018-08-24T19:00:41.523Z,14.20
2018-08-24T19:03:22.566Z,14.10
2018-08-24T19:06:08.717Z,14.10
2018-08-24T19:08:41.120Z,14.00
2018-08-24T19:11:15.793Z,14.00
2018-08-24T19:13:47.900Z,14.00
2018-08-24T19:16:16.437Z,13.90
2018-08-24T19:18:53.304Z,14.00
2018-08-24T19:21:32.597Z,13.90
2018-08-24T19:24:01.344Z,13.90
2018-08-24T19:26:35.917Z,13.90
2018-08-24T19:29:15.557Z,14.00
2018-08-24T19:31:44.364Z,13.90
2018-08-24T19:34:13.744Z,13.90
2018-08-24T19:36:43.358Z,13.80
2018-08-24T19:39:13.686Z,13.80
2018-08-24T19:41:49.225Z,13.70
2018-08-24T19:44:17.963Z,13.70
2018-08-24T19:46:46.866Z,13.70
2018-08-24T19:49:19.003Z,13.70
2018-08-24T19:51:52.726Z,13.80
2018-08-24T19:54:23.881Z,13.70
2018-08-24T19:56:53.500Z,13.80
2018-08-24T19:59:22.039Z,13.70
2018-08-24T20:01:50.654Z,13.80
2018-08-24T20:04:20.547Z,13.80
2018-08-24T20:06:54.970Z,13.80
2018-08-24T20:10:30.187Z,13.90
2018-08-24T20:12:59.973Z,13.90
2018-08-24T20:15:40.709Z,13.90
2018-08-24T20:18:09.987Z,13.90
2018-08-24T20:20:38.665Z,13.90
2018-08-24T20:23:10.163Z,14.00
2018-08-24T20:25:44.403Z,14.00
2018-08-24T20:31:06.285Z,14.10
2018-08-24T20:33:40.265Z,14.10
2018-08-24T20:36:15.050Z,14.10
2018-08-24T20:38:45.414Z,14.10
2018-08-24T20:41:13.972Z,14.10
2018-08-24T20:43:54.755Z,14.10
2018-08-24T20:46:30.739Z,14.10
2018-08-24T20:49:01.940Z,14.10
2018-08-24T20:51:30.729Z,14.00
2018-08-24T20:54:02.369Z,14.00
2018-08-24T20:56:31.178Z,14.00
2018-08-24T20:59:09.280Z,14.00
2018-08-24T21:01:43.093Z,14.00
2018-08-24T21:04:18.100Z,13.90
2018-08-24T21:06:52.713Z,13.90
2018-08-24T21:09:32.911Z,13.90
2018-08-24T21:12:02.914Z,13.80
2018-08-24T21:14:45.021Z,13.80
2018-08-24T21:17:18.087Z,13.70
2018-08-24T21:19:52.864Z,13.70
2018-08-24T21:22:21.503Z,13.70
2018-08-24T21:25:02.084Z,13.60
2018-08-24T21:27:40.286Z,13.60
2018-08-24T21:30:25.717Z,13.60
2018-08-24T21:32:54.106Z,13.60
2018-08-24T21:35:28.679Z,13.60
2018-08-24T21:38:00.514Z,13.50
2018-08-24T21:40:32.105Z,13.50
2018-08-24T21:43:06.335Z,13.50
2018-08-24T21:45:42.878Z,13.40
2018-08-24T21:48:25.211Z,13.40
2018-08-24T21:51:07.526Z,13.30
2018-08-24T21:53:36.475Z,13.30
2018-08-24T21:56:19.801Z,13.30
2018-08-24T21:58:48.768Z,13.30
2018-08-24T22:01:18.456Z,13.30
2018-08-24T22:07:00.923Z,13.20
2018-08-24T22:09:46.242Z,13.20
2018-08-24T22:12:22.692Z,13.20
2018-08-24T22:14:56.680Z,13.20
2018-08-24T22:17:32.462Z,13.10
2018-08-24T22:20:01.900Z,13.00
2018-08-24T22:22:33.657Z,13.00
2018-08-24T22:25:03.084Z,13.00
2018-08-24T22:27:31.819Z,13.00
2018-08-24T22:30:03.723Z,13.00
2018-08-24T22:32:32.435Z,13.00
2018-08-24T22:35:01.144Z,13.00
2018-08-24T22:37:32.865Z,13.00
2018-08-24T22:40:02.535Z,12.90
2018-08-24T22:45:35.606Z,12.90
2018-08-24T22:48:09.721Z,12.90
2018-08-24T22:50:49.877Z,12.90
2018-08-24T22:53:28.277Z,12.90
2018-08-24T22:56:04.758Z,12.90
2018-08-24T22:58:36.049Z,12.80
2018-08-24T23:01:12.329Z,12.90
2018-08-24T23:03:46.832Z,12.90
2018-08-24T23:06:34.104Z,12.90
2018-08-24T23:09:15.485Z,12.90
2018-08-24T23:12:02.230Z,12.90
2018-08-24T23:14:38.153Z,13.00
2018-08-24T23:20:00.044Z,12.90
2018-08-24T23:22:32.184Z,12.90
2018-08-24T23:25:01.484Z,12.90
2018-08-24T23:27:39.628Z,12.90
2018-08-24T23:30:09.101Z,12.90
2018-08-24T23:32:37.790Z,12.80
2018-08-24T23:35:12.104Z,12.80
2018-08-24T23:37:42.027Z,12.80
2018-08-24T23:40:10.931Z,12.80
2018-08-24T23:42:45.050Z,12.80
2018-08-24T23:45:26.164Z,12.80
2018-08-24T23:48:06.825Z,12.80
2018-08-24T23:50:42.880Z,12.80
2018-08-24T23:53:24.312Z,12.70
2018-08-24T23:56:00.525Z,12.80
2018-08-24T23:58:41.852Z,12.80
